Time;durP1;ratioP1;P1;durP2;ratioP2;P2;SDS_P1;SDS_P2;PMS_P1;PMS_P2;Temp;Humidity;BMP_temperature;BMP_pressure;BME280_temperature;BME280_humidity;BME280_pressure;Samples;Min_cycle;Max_cycle;Signal;HPM_P1;HPM_P2
2022/07/26 00:00:31;;;;;;;3.17;1.10;;;23.50;67.60;;;;;;5090278;28;20624;-66
2022/07/26 00:02:59;;;;;;;2.37;0.90;;;23.40;67.40;;;;;;5089995;28;20174;-66
2022/07/26 00:05:25;;;;;;;4.03;0.90;;;23.40;67.50;;;;;;5090340;28;20174;-67
2022/07/26 00:08:09;;;;;;;2.10;0.90;;;23.20;67.50;;;;;;5089786;28;20196;-66
2022/07/26 00:10:38;;;;;;;2.70;1.33;;;23.20;67.70;;;;;;5086032;28;20193;-66
2022/07/26 00:13:05;;;;;;;3.90;1.10;;;23.20;67.40;;;;;;5081104;28;20639;-68
2022/07/26 00:15:32;;;;;;;1.45;0.88;;;23.20;67.40;;;;;;5089278;28;20214;-65
2022/07/26 00:17:58;;;;;;;1.42;1.00;;;23.20;67.20;;;;;;5087609;28;20252;-65
2022/07/26 00:20:25;;;;;;;3.03;1.00;;;23.20;67.10;;;;;;5087574;28;20218;-69
2022/07/26 00:22:51;;;;;;;6.32;1.20;;;23.10;67.00;;;;;;5070555;28;20217;-67
2022/07/26 00:25:17;;;;;;;3.47;1.07;;;23.20;67.20;;;;;;5090351;28;20229;-65
2022/07/26 00:27:45;;;;;;;5.93;1.10;;;23.10;67.10;;;;;;5084728;28;20304;-68
2022/07/26 00:30:13;;;;;;;2.90;1.20;;;23.00;67.20;;;;;;5082976;28;20190;-67
2022/07/26 00:32:39;;;;;;;3.85;1.58;;;22.90;67.30;;;;;;5052120;28;20181;-65
2022/07/26 00:35:07;;;;;;;3.97;1.20;;;22.90;67.70;;;;;;5070758;28;20290;-66
2022/07/26 00:37:34;;;;;;;9.03;1.53;;;22.80;67.70;;;;;;5064415;28;20566;-67
2022/07/26 00:40:00;;;;;;;1.90;1.07;;;22.80;67.40;;;;;;5074307;28;20263;-67
2022/07/26 00:42:26;;;;;;;2.33;1.00;;;22.80;67.60;;;;;;5086158;28;20219;-66
2022/07/26 00:44:54;;;;;;;7.00;1.20;;;22.90;67.70;;;;;;5073937;28;20185;-65
2022/07/26 00:47:20;;;;;;;4.40;0.93;;;22.90;67.60;;;;;;5089847;28;20201;-67
2022/07/26 00:49:47;;;;;;;1.90;1.10;;;23.00;66.90;;;;;;5054865;28;20186;-65
2022/07/26 00:52:13;;;;;;;2.30;1.00;;;23.00;66.70;;;;;;5087844;28;20457;-66
2022/07/26 00:54:44;;;;;;;3.03;1.10;;;23.00;66.50;;;;;;5077143;28;20207;-67
2022/07/26 00:57:12;;;;;;;2.17;1.00;;;23.00;65.60;;;;;;5072749;28;20218;-68
2022/07/26 00:59:38;;;;;;;4.53;1.10;;;22.90;65.50;;;;;;5070756;28;20545;-66
2022/07/26 01:02:07;;;;;;;1.63;1.10;;;22.90;65.90;;;;;;5087545;28;20199;-66
2022/07/26 01:04:34;;;;;;;3.30;1.03;;;22.90;65.80;;;;;;5072311;28;20308;-68
2022/07/26 01:07:01;;;;;;;7.47;1.30;;;23.00;65.50;;;;;;5086584;28;20923;-66
2022/07/26 01:09:29;;;;;;;4.10;1.10;;;23.00;65.50;;;;;;5083866;28;20190;-66
2022/07/26 01:11:56;;;;;;;1.73;0.90;;;23.00;65.20;;;;;;5068019;28;20182;-66
2022/07/26 01:14:23;;;;;;;3.77;1.00;;;23.10;65.70;;;;;;5073224;28;20698;-65
2022/07/26 01:16:53;;;;;;;1.63;1.00;;;23.10;65.70;;;;;;5087420;28;20198;-67
2022/07/26 01:19:20;;;;;;;3.70;1.00;;;23.10;63.30;;;;;;5085248;28;20190;-66
2022/07/26 01:21:48;;;;;;;1.67;0.97;;;23.10;62.90;;;;;;5069520;28;20201;-66
2022/07/26 01:24:15;;;;;;;1.30;1.00;;;23.10;63.10;;;;;;5064929;28;20192;-65
2022/07/26 01:26:41;;;;;;;1.60;0.93;;;23.10;64.10;;;;;;5085022;28;20198;-67
2022/07/26 01:29:08;;;;;;;3.03;0.80;;;23.10;64.10;;;;;;5072286;28;20679;-67
2022/07/26 01:31:34;;;;;;;1.73;0.90;;;23.10;63.50;;;;;;5071453;28;20197;-65
2022/07/26 01:34:03;;;;;;;2.30;0.97;;;23.10;63.60;;;;;;5083312;28;20201;-66
2022/07/26 01:36:29;;;;;;;4.60;1.17;;;23.10;63.90;;;;;;5088210;28;20838;-67
2022/07/26 01:38:55;;;;;;;3.50;1.00;;;23.00;63.80;;;;;;5084755;28;20649;-67
2022/07/26 01:41:22;;;;;;;3.60;1.00;;;23.00;63.50;;;;;;5088533;28;20197;-66
2022/07/26 01:43:49;;;;;;;4.63;1.10;;;23.00;63.40;;;;;;5068520;28;20186;-67
2022/07/26 01:46:15;;;;;;;2.87;1.00;;;23.00;63.20;;;;;;5089109;28;20190;-67
2022/07/26 01:48:42;;;;;;;3.23;1.07;;;22.90;62.90;;;;;;5087469;28;20193;-65
2022/07/26 01:51:08;;;;;;;2.40;1.00;;;22.90;63.10;;;;;;5075994;28;20201;-66
2022/07/26 01:53:34;;;;;;;1.00;0.87;;;22.90;63.20;;;;;;5089387;28;20186;-65
2022/07/26 01:56:01;;;;;;;2.07;1.07;;;22.90;63.10;;;;;;5088067;28;20206;-69
2022/07/26 01:58:27;;;;;;;3.33;0.90;;;22.90;63.10;;;;;;5087659;28;20182;-66
2022/07/26 02:00:54;;;;;;;1.30;1.00;;;22.80;63.00;;;;;;5089334;28;20189;-66
2022/07/26 02:03:20;;;;;;;2.10;0.90;;;22.80;63.60;;;;;;5087415;28;20690;-66
2022/07/26 02:05:46;;;;;;;2.63;0.90;;;22.80;62.80;;;;;;5085250;28;20263;-66
2022/07/26 02:08:13;;;;;;;3.10;1.20;;;22.80;63.80;;;;;;5070519;28;20194;-66
2022/07/26 02:13:25;;;;;;;2.47;1.00;;;22.70;63.10;;;;;;5086928;28;20648;-67
2022/07/26 02:15:51;;;;;;;1.07;0.90;;;22.60;63.10;;;;;;5088722;28;20260;-65
2022/07/26 02:18:18;;;;;;;1.60;1.07;;;22.60;63.70;;;;;;5073384;28;20269;-66
2022/07/26 02:20:45;;;;;;;1.97;0.87;;;22.50;62.80;;;;;;5088192;28;20196;-68
2022/07/26 02:23:12;;;;;;;3.10;1.10;;;22.50;63.20;;;;;;5083507;28;20633;-66
2022/07/26 02:25:38;;;;;;;3.47;1.20;;;22.50;63.90;;;;;;5085885;28;20186;-65
2022/07/26 02:28:05;;;;;;;2.23;1.10;;;22.50;63.00;;;;;;5087110;28;20209;-65
2022/07/26 02:30:31;;;;;;;1.90;1.10;;;22.40;63.00;;;;;;5086601;28;20198;-67
2022/07/26 02:32:57;;;;;;;4.43;1.07;;;22.40;63.30;;;;;;5062286;28;20277;-66
2022/07/26 02:35:24;;;;;;;1.63;0.90;;;22.40;63.30;;;;;;5071684;28;20230;-66
2022/07/26 02:37:50;;;;;;;1.97;1.03;;;22.50;63.80;;;;;;5067665;28;20206;-69
2022/07/26 02:40:16;;;;;;;2.20;0.90;;;22.40;63.80;;;;;;5091522;28;20186;-67
2022/07/26 02:42:44;;;;;;;1.40;1.07;;;22.40;64.40;;;;;;5075339;28;20184;-66
2022/07/26 02:45:10;;;;;;;3.60;1.00;;;22.50;64.40;;;;;;5093111;28;20707;-65
2022/07/26 02:47:49;;;;;;;1.23;0.80;;;22.50;64.70;;;;;;5075680;28;20181;-66
2022/07/26 02:50:21;;;;;;;1.13;1.00;;;22.60;64.70;;;;;;5076135;28;20193;-66
2022/07/26 02:52:48;;;;;;;5.20;1.10;;;22.60;64.50;;;;;;5094989;28;20201;-67
2022/07/26 02:55:18;;;;;;;1.93;1.20;;;22.60;64.40;;;;;;5093575;28;20270;-67
2022/07/26 02:57:45;;;;;;;2.33;1.13;;;22.60;64.00;;;;;;5071075;28;20182;-68
2022/07/26 03:00:16;;;;;;;1.10;1.00;;;22.60;63.90;;;;;;5085154;28;20206;-66
2022/07/26 03:02:42;;;;;;;1.70;1.13;;;22.60;63.80;;;;;;5090982;28;20186;-67
2022/07/26 03:05:10;;;;;;;1.70;1.00;;;22.60;63.00;;;;;;5091199;28;20188;-65
2022/07/26 03:07:37;;;;;;;1.80;0.90;;;22.70;63.80;;;;;;5092779;28;20189;-65
2022/07/26 03:10:05;;;;;;;3.20;1.20;;;22.70;63.30;;;;;;5087589;28;20190;-64
2022/07/26 03:12:31;;;;;;;1.90;1.00;;;22.70;63.00;;;;;;5091692;28;20178;-65
2022/07/26 03:14:58;;;;;;;2.83;1.10;;;22.70;63.60;;;;;;5076663;28;20198;-65
2022/07/26 03:17:25;;;;;;;2.53;1.00;;;22.70;64.30;;;;;;5092940;28;20205;-67
2022/07/26 03:19:51;;;;;;;6.33;1.10;;;22.70;64.00;;;;;;5066161;28;20697;-65
2022/07/26 03:22:18;;;;;;;2.07;1.00;;;22.70;64.40;;;;;;5085996;28;20264;-65
2022/07/26 03:24:46;;;;;;;2.10;0.90;;;22.70;64.50;;;;;;5074355;28;20186;-65
2022/07/26 03:27:12;;;;;;;6.40;1.10;;;22.70;64.70;;;;;;5081431;28;20247;-65
2022/07/26 03:29:39;;;;;;;2.33;1.03;;;22.70;64.50;;;;;;5092253;28;20196;-66
2022/07/26 03:32:07;;;;;;;2.50;0.90;;;22.70;64.60;;;;;;5071374;28;20232;-65
2022/07/26 03:34:49;;;;;;;1.03;0.93;;;22.70;64.60;;;;;;5062208;28;20234;-66
2022/07/26 03:37:16;;;;;;;4.00;1.17;;;22.70;64.80;;;;;;5094280;28;20198;-67
2022/07/26 03:39:42;;;;;;;6.57;1.20;;;22.70;65.20;;;;;;5081717;28;20205;-66
2022/07/26 03:42:11;;;;;;;2.70;1.17;;;22.80;64.30;;;;;;5068503;28;20225;-67
2022/07/26 03:44:37;;;;;;;3.07;0.80;;;22.80;65.00;;;;;;5092132;28;20281;-67
2022/07/26 03:47:04;;;;;;;1.90;1.03;;;22.80;64.90;;;;;;5094449;28;20228;-66
2022/07/26 03:49:31;;;;;;;5.47;1.00;;;22.80;65.50;;;;;;5076008;28;20274;-65
2022/07/26 03:51:57;;;;;;;2.60;1.00;;;22.80;65.30;;;;;;5083420;28;20578;-66
2022/07/26 03:54:24;;;;;;;1.33;1.00;;;22.80;65.70;;;;;;5085954;28;20309;-68
2022/07/26 03:56:50;;;;;;;3.20;1.07;;;22.80;65.90;;;;;;5055318;28;20558;-65
2022/07/26 03:59:19;;;;;;;2.77;1.03;;;22.80;65.90;;;;;;5089372;28;20186;-65
2022/07/26 04:01:47;;;;;;;1.63;0.87;;;22.80;66.00;;;;;;5089756;28;20217;-66
2022/07/26 04:04:16;;;;;;;1.10;0.90;;;22.80;66.20;;;;;;5055650;28;20196;-65
2022/07/26 04:06:45;;;;;;;3.80;1.13;;;22.90;66.70;;;;;;5072511;28;20681;-65
2022/07/26 04:09:12;;;;;;;1.30;0.90;;;22.90;67.10;;;;;;5062892;28;20202;-65
2022/07/26 04:11:39;;;;;;;1.97;1.00;;;22.90;67.40;;;;;;5090574;28;20204;-65
2022/07/26 04:14:06;;;;;;;6.63;1.20;;;22.90;67.50;;;;;;5091028;28;20317;-65
2022/07/26 04:16:32;;;;;;;4.37;1.07;;;22.90;67.70;;;;;;5089630;28;20910;-65
2022/07/26 04:18:59;;;;;;;1.63;0.90;;;22.90;68.10;;;;;;5089424;28;20190;-65
2022/07/26 04:21:25;;;;;;;2.20;0.80;;;22.90;68.00;;;;;;5088755;28;20182;-65
2022/07/26 04:23:52;;;;;;;5.40;1.23;;;22.90;68.00;;;;;;5069192;28;20214;-66
2022/07/26 04:26:20;;;;;;;1.67;0.93;;;23.00;68.30;;;;;;5087820;28;20225;-65
2022/07/26 04:28:47;;;;;;;2.97;1.03;;;23.00;68.00;;;;;;5089540;28;20194;-65
2022/07/26 04:31:16;;;;;;;1.30;1.00;;;23.10;68.00;;;;;;5055202;28;20195;-67
2022/07/26 04:33:42;;;;;;;1.37;0.60;;;23.10;68.20;;;;;;5085948;28;20205;-66
2022/07/26 04:36:09;;;;;;;2.30;1.00;;;23.20;69.00;;;;;;5090058;28;20186;-66
2022/07/26 04:38:36;;;;;;;1.30;1.00;;;23.30;69.70;;;;;;5084429;28;20194;-66
2022/07/26 04:41:03;;;;;;;1.83;1.00;;;23.40;69.60;;;;;;5059803;28;20183;-67
2022/07/26 04:43:30;;;;;;;2.90;0.90;;;23.50;70.10;;;;;;5090506;28;20296;-67
2022/07/26 04:45:57;;;;;;;2.13;0.83;;;23.60;70.30;;;;;;5089526;28;20275;-65
2022/07/26 04:48:24;;;;;;;1.65;0.90;;;23.70;71.10;;;;;;5087411;28;20554;-66
2022/07/26 04:50:52;;;;;;;0.90;0.80;;;23.70;70.60;;;;;;5090159;28;20186;-66
2022/07/26 04:53:18;;;;;;;1.58;1.10;;;23.80;69.80;;;;;;5069487;28;20516;-67
2022/07/26 04:55:45;;;;;;;0.97;0.80;;;24.00;71.60;;;;;;5084531;28;20209;-67
2022/07/26 04:58:11;;;;;;;1.85;1.05;;;24.10;71.60;;;;;;5089548;28;20192;-65
2022/07/26 05:00:38;;;;;;;1.10;0.90;;;24.10;69.70;;;;;;5087505;28;20179;-67
2022/07/26 05:03:04;;;;;;;3.03;0.88;;;24.20;69.90;;;;;;5087586;28;20186;-68
2022/07/26 05:05:32;;;;;;;0.88;0.73;;;24.30;68.80;;;;;;5093816;28;20962;-66
2022/07/26 05:08:02;;;;;;;1.10;0.80;;;24.30;68.00;;;;;;5059892;28;20185;-65
2022/07/26 05:10:36;;;;;;;4.93;0.90;;;24.50;68.00;;;;;;5088427;28;20294;-65
2022/07/26 05:13:05;;;;;;;2.78;0.90;;;24.60;67.90;;;;;;5090111;28;20655;-66
2022/07/26 05:15:34;;;;;;;2.70;0.90;;;24.70;68.60;;;;;;5078241;28;20219;-66
2022/07/26 05:18:08;;;;;;;0.80;0.70;;;24.70;68.20;;;;;;5062392;28;20811;-65
2022/07/26 05:20:36;;;;;;;1.42;0.90;;;24.80;68.20;;;;;;5089680;28;20178;-66
2022/07/26 05:23:03;;;;;;;1.52;0.90;;;24.90;68.40;;;;;;5089784;28;20198;-67
2022/07/26 05:25:29;;;;;;;1.20;0.90;;;24.90;69.00;;;;;;5089838;28;20596;-66
2022/07/26 05:27:56;;;;;;;2.17;1.20;;;24.90;68.40;;;;;;5070349;28;20535;-65
2022/07/26 05:30:22;;;;;;;3.45;1.00;;;24.90;68.60;;;;;;5066787;28;20187;-68
2022/07/26 05:32:49;;;;;;;3.53;1.00;;;24.90;68.50;;;;;;5070558;28;20720;-69
2022/07/26 05:35:15;;;;;;;4.53;1.10;;;25.00;69.60;;;;;;5089681;28;20213;-66
2022/07/26 05:37:45;;;;;;;2.67;1.27;;;25.10;68.60;;;;;;5077967;28;20324;-66
2022/07/26 05:40:12;;;;;;;3.25;1.00;;;25.10;67.40;;;;;;5073206;28;20903;-67
2022/07/26 05:42:38;;;;;;;3.70;1.00;;;25.10;67.50;;;;;;5089255;28;20178;-67
2022/07/26 05:45:06;;;;;;;4.43;1.20;;;25.20;67.20;;;;;;5086330;28;21011;-66
2022/07/26 05:47:32;;;;;;;2.05;0.95;;;25.20;67.60;;;;;;5086047;28;20190;-65
2022/07/26 05:49:59;;;;;;;4.95;1.17;;;25.40;64.70;;;;;;5087272;28;20197;-64
2022/07/26 05:52:25;;;;;;;7.20;1.30;;;25.60;62.80;;;;;;5070874;28;20902;-65
2022/07/26 05:54:51;;;;;;;3.28;1.23;;;25.70;62.40;;;;;;5088495;28;20249;-65
2022/07/26 05:57:18;;;;;;;4.35;1.10;;;25.70;65.30;;;;;;5087834;28;20182;-67
2022/07/26 05:59:45;;;;;;;2.67;1.02;;;25.70;64.30;;;;;;5077773;28;20198;-64
2022/07/26 06:02:11;;;;;;;4.97;1.20;;;25.80;64.30;;;;;;5084128;28;20200;-67
2022/07/26 06:04:37;;;;;;;3.05;1.05;;;26.00;64.80;;;;;;5079104;28;20220;-66
2022/07/26 06:07:04;;;;;;;5.20;1.10;;;26.10;65.00;;;;;;5085791;28;20281;-67
2022/07/26 06:09:30;;;;;;;4.53;1.10;;;26.20;64.40;;;;;;5076708;28;20221;-68
2022/07/26 06:11:57;;;;;;;4.05;1.52;;;26.30;64.20;;;;;;5067568;28;20190;-65
2022/07/26 06:14:23;;;;;;;2.60;1.08;;;26.40;63.80;;;;;;5079946;28;20773;-66
2022/07/26 06:16:50;;;;;;;4.45;1.02;;;26.50;62.80;;;;;;5079686;28;20226;-65
2022/07/26 06:19:16;;;;;;;3.55;1.30;;;26.70;63.20;;;;;;5087696;28;20242;-65
2022/07/26 06:21:44;;;;;;;5.22;1.50;;;26.90;63.00;;;;;;5067149;28;20178;-65
2022/07/26 06:24:12;;;;;;;2.42;1.00;;;27.10;62.80;;;;;;5085153;28;20285;-65
2022/07/26 06:26:38;;;;;;;2.13;1.70;;;27.20;63.30;;;;;;5078431;28;20554;-64
2022/07/26 06:29:05;;;;;;;2.33;1.17;;;27.30;62.70;;;;;;5088812;28;20189;-64
2022/07/26 06:31:31;;;;;;;1.45;1.00;;;27.30;63.20;;;;;;5066625;28;20866;-64
2022/07/26 06:33:58;;;;;;;8.63;1.55;;;27.50;62.30;;;;;;5080162;28;20179;-63
2022/07/26 06:36:24;;;;;;;8.85;1.30;;;27.60;62.20;;;;;;5069019;28;20190;-64
2022/07/26 06:38:54;;;;;;;4.63;1.30;;;27.80;61.90;;;;;;5082942;28;20213;-64
2022/07/26 06:41:25;;;;;;;3.53;1.15;;;27.80;62.60;;;;;;5088288;28;20762;-63
2022/07/26 06:43:52;;;;;;;2.25;1.10;;;27.90;62.20;;;;;;5088257;28;20244;-66
2022/07/26 06:46:19;;;;;;;1.73;1.20;;;28.00;62.00;;;;;;5067996;28;20190;-63
2022/07/26 06:48:47;;;;;;;6.82;1.27;;;28.00;62.90;;;;;;5076546;28;20301;-66
2022/07/26 06:51:13;;;;;;;4.30;1.10;;;28.10;61.40;;;;;;5070431;28;20209;-65
2022/07/26 06:53:40;;;;;;;3.47;1.13;;;28.10;60.90;;;;;;5082222;28;20270;-67
2022/07/26 06:56:07;;;;;;;5.57;1.08;;;28.10;60.90;;;;;;5067491;28;20314;-64
2022/07/26 06:58:33;;;;;;;3.80;1.00;;;28.10;62.10;;;;;;5053135;28;20188;-64
2022/07/26 07:00:59;;;;;;;2.03;1.00;;;28.10;62.10;;;;;;5083612;28;20189;-66
2022/07/26 07:03:26;;;;;;;9.80;1.50;;;28.10;61.80;;;;;;5091589;28;20221;-65
2022/07/26 07:05:52;;;;;;;2.17;1.30;;;28.40;62.70;;;;;;5078298;28;20536;-64
2022/07/26 07:08:20;;;;;;;4.97;1.20;;;28.70;62.50;;;;;;5086344;28;20213;-64
2022/07/26 07:10:46;;;;;;;4.03;1.45;;;28.80;63.60;;;;;;5066280;28;20545;-65
2022/07/26 07:13:13;;;;;;;5.95;1.00;;;28.80;63.70;;;;;;5087703;28;20186;-64
2022/07/26 07:15:39;;;;;;;3.47;1.10;;;28.90;63.00;;;;;;5086138;28;20222;-64
2022/07/26 07:18:05;;;;;;;8.40;1.27;;;28.90;62.90;;;;;;5081607;28;20300;-65
2022/07/26 07:20:33;;;;;;;5.95;1.30;;;29.00;63.50;;;;;;5084361;28;20225;-64
2022/07/26 07:22:59;;;;;;;1.60;1.00;;;29.00;64.00;;;;;;5079400;28;20274;-67
2022/07/26 07:25:26;;;;;;;6.00;1.30;;;29.10;64.00;;;;;;5087604;28;20577;-65
2022/07/26 07:27:52;;;;;;;11.40;1.30;;;29.20;64.80;;;;;;5074584;28;20232;-66
2022/07/26 07:30:18;;;;;;;4.57;1.38;;;29.30;65.00;;;;;;5086333;28;20186;-67
2022/07/26 07:32:45;;;;;;;3.95;1.45;;;29.40;65.20;;;;;;5087676;28;20274;-68
2022/07/26 07:35:11;;;;;;;4.97;1.15;;;29.50;65.90;;;;;;5085735;28;20209;-66
2022/07/26 07:37:38;;;;;;;4.82;1.38;;;29.50;66.70;;;;;;5044608;28;20201;-64
2022/07/26 07:40:09;;;;;;;6.13;1.50;;;29.60;68.40;;;;;;5091784;28;20261;-65
2022/07/26 07:42:36;;;;;;;2.33;1.20;;;29.70;68.30;;;;;;5072843;28;20535;-65
2022/07/26 07:45:04;;;;;;;3.22;1.17;;;29.70;68.80;;;;;;5069465;28;20237;-64
2022/07/26 07:47:34;;;;;;;2.63;1.10;;;29.80;68.80;;;;;;5067373;28;20191;-64
2022/07/26 07:50:00;;;;;;;3.17;1.25;;;29.90;69.20;;;;;;5080048;28;20190;-64
2022/07/26 07:52:27;;;;;;;7.97;1.35;;;29.90;68.60;;;;;;5055935;28;20296;-65
2022/07/26 07:54:53;;;;;;;3.88;1.20;;;29.90;68.20;;;;;;5072342;28;20213;-66
2022/07/26 07:57:20;;;;;;;4.65;1.20;;;30.00;68.60;;;;;;5055579;28;20974;-67
2022/07/26 07:59:46;;;;;;;3.22;1.10;;;30.10;68.20;;;;;;5090392;28;20175;-66
2022/07/26 08:02:14;;;;;;;5.78;1.20;;;30.10;68.30;;;;;;5090189;28;20197;-65
2022/07/26 08:04:41;;;;;;;3.58;0.95;;;30.30;68.80;;;;;;5086136;28;20269;-65
2022/07/26 08:07:07;;;;;;;5.20;1.42;;;30.40;68.20;;;;;;5086705;28;20197;-65
2022/07/26 08:09:33;;;;;;;8.30;1.30;;;30.50;68.00;;;;;;5087132;28;20221;-64
2022/07/26 08:12:00;;;;;;;4.10;1.75;;;30.50;68.00;;;;;;5090990;28;20189;-65
2022/07/26 08:14:27;;;;;;;4.82;1.25;;;30.50;67.50;;;;;;5072202;28;20682;-65
2022/07/26 08:16:53;;;;;;;4.10;1.10;;;30.60;67.50;;;;;;5055052;28;20539;-65
2022/07/26 08:19:19;;;;;;;6.53;1.30;;;30.70;67.60;;;;;;5070676;28;20189;-65
2022/07/26 08:21:46;;;;;;;3.75;1.23;;;30.70;67.50;;;;;;5069515;28;20626;-66
2022/07/26 08:24:12;;;;;;;1.35;1.10;;;30.60;66.90;;;;;;5088232;28;20197;-68
2022/07/26 08:26:38;;;;;;;4.25;1.10;;;30.70;67.50;;;;;;5089531;28;20293;-65
2022/07/26 08:29:05;;;;;;;2.22;1.15;;;30.70;67.00;;;;;;5090289;28;20243;-66
2022/07/26 08:31:31;;;;;;;7.05;1.20;;;30.80;67.10;;;;;;5071829;28;20176;-65
2022/07/26 08:33:58;;;;;;;3.08;1.00;;;30.90;67.60;;;;;;5071314;28;20182;-66
2022/07/26 08:36:24;;;;;;;6.15;1.42;;;30.90;68.10;;;;;;5084894;28;20726;-68
2022/07/26 08:38:51;;;;;;;1.77;1.20;;;30.80;69.00;;;;;;5086134;28;20202;-66
2022/07/26 08:41:18;;;;;;;3.42;1.30;;;30.90;70.60;;;;;;5090382;28;20193;-66
2022/07/26 08:43:46;;;;;;;4.40;1.33;;;30.90;71.70;;;;;;5065940;28;20332;-63
2022/07/26 08:46:12;;;;;;;1.50;1.17;;;31.00;72.20;;;;;;5069043;28;20190;-65
2022/07/26 08:48:39;;;;;;;6.80;1.20;;;31.00;72.80;;;;;;5089082;28;20197;-66
2022/07/26 08:51:09;;;;;;;5.05;1.30;;;31.00;72.70;;;;;;5083348;28;20190;-65
2022/07/26 08:53:36;;;;;;;6.53;1.42;;;31.00;73.00;;;;;;5072735;28;20200;-65
2022/07/26 08:56:05;;;;;;;2.95;1.15;;;31.00;73.10;;;;;;5089435;28;20210;-66
2022/07/26 08:58:35;;;;;;;4.93;1.30;;;31.10;74.40;;;;;;5089830;28;20186;-66
2022/07/26 09:01:13;;;;;;;10.18;1.30;;;31.20;75.90;;;;;;5085386;28;20269;-66
2022/07/26 09:03:42;;;;;;;4.05;1.30;;;31.20;77.00;;;;;;5089160;28;20186;-64
2022/07/26 09:06:21;;;;;;;2.17;1.10;;;31.20;78.40;;;;;;5081332;28;20267;-66
2022/07/26 09:08:52;;;;;;;2.20;1.23;;;31.10;81.00;;;;;;5079051;28;20194;-64
2022/07/26 09:11:28;;;;;;;3.00;1.00;;;31.20;84.80;;;;;;5089807;28;20201;-66
2022/07/26 09:14:03;;;;;;;3.42;1.20;;;31.20;87.50;;;;;;5089648;28;20173;-66
2022/07/26 09:16:31;;;;;;;4.05;1.40;;;31.20;89.70;;;;;;5070762;28;20608;-65
2022/07/26 09:19:20;;;;;;;2.92;1.20;;;31.30;90.70;;;;;;5089425;28;20802;-64
2022/07/26 09:21:47;;;;;;;6.97;1.50;;;31.20;91.10;;;;;;5071458;28;20186;-66
2022/07/26 09:24:36;;;;;;;6.72;1.40;;;31.30;91.30;;;;;;5089219;28;20821;-67
2022/07/26 09:27:05;;;;;;;3.05;1.30;;;31.50;91.00;;;;;;5089121;28;20194;-65
2022/07/26 09:29:50;;;;;;;4.88;1.17;;;31.70;91.30;;;;;;5086824;28;20258;-65
2022/07/26 09:32:26;;;;;;;4.03;1.30;;;31.80;91.00;;;;;;5087913;28;20181;-66
2022/07/26 09:35:14;;;;;;;7.93;1.55;;;31.80;91.60;;;;;;5083969;28;20210;-65
2022/07/26 09:37:42;;;;;;;4.35;1.40;;;31.80;92.30;;;;;;5070642;28;20761;-65
2022/07/26 09:40:16;;;;;;;3.92;1.13;;;31.90;92.30;;;;;;5085247;28;20220;-65
2022/07/26 09:42:59;;;;;;;4.70;1.70;;;32.10;92.20;;;;;;5075966;28;20210;-66
2022/07/26 09:45:29;;;;;;;4.22;1.38;;;32.30;92.10;;;;;;5086687;28;20190;-68
2022/07/26 09:47:58;;;;;;;2.67;1.30;;;32.40;92.00;;;;;;5083632;28;20773;-66
2022/07/26 09:50:29;;;;;;;4.45;1.30;;;32.60;91.40;;;;;;5081925;28;20943;-68
2022/07/26 09:53:12;;;;;;;4.30;1.30;;;32.70;91.30;;;;;;5078627;28;20209;-66
2022/07/26 09:55:45;;;;;;;4.63;1.27;;;32.80;92.00;;;;;;5067402;28;20217;-64
2022/07/26 09:58:15;;;;;;;4.40;1.30;;;32.60;92.00;;;;;;5086125;28;20654;-64
2022/07/26 10:00:45;;;;;;;4.32;1.20;;;32.60;91.90;;;;;;5051120;28;20179;-67
2022/07/26 10:03:12;;;;;;;3.83;1.25;;;32.40;92.40;;;;;;5083292;28;20190;-64
2022/07/26 10:05:39;;;;;;;4.97;1.35;;;32.40;92.20;;;;;;5074915;28;20205;-67
2022/07/26 10:08:07;;;;;;;3.88;1.50;;;32.30;92.50;;;;;;5084778;28;20194;-65
2022/07/26 10:10:44;;;;;;;5.15;1.10;;;32.50;92.20;;;;;;5085610;28;20727;-65
2022/07/26 10:13:11;;;;;;;4.03;1.23;;;32.50;92.10;;;;;;5083882;28;20185;-67
2022/07/26 10:15:45;;;;;;;5.28;1.10;;;32.60;92.00;;;;;;5088640;28;20271;-64
2022/07/26 10:18:42;;;;;;;5.90;1.15;;;32.40;92.50;;;;;;5086975;28;20178;-65
2022/07/26 10:21:29;;;;;;;5.22;1.38;;;32.20;93.20;;;;;;5060932;28;20194;-66
2022/07/26 10:24:02;;;;;;;7.82;1.27;;;32.30;92.90;;;;;;5084112;28;20188;-64
2022/07/26 10:26:31;;;;;;;7.45;1.48;;;32.40;93.10;;;;;;5085242;28;20592;-63
2022/07/26 10:29:15;;;;;;;4.85;1.10;;;32.30;92.50;;;;;;5073417;28;20396;-66
2022/07/26 10:31:48;;;;;;;3.08;1.30;;;32.30;92.80;;;;;;5082898;28;20197;-65
2022/07/26 10:34:38;;;;;;;3.95;1.27;;;32.40;92.60;;;;;;5084254;28;20246;-64
2022/07/26 10:37:19;;;;;;;5.75;1.02;;;32.20;92.30;;;;;;5087639;28;20205;-65
2022/07/26 10:39:46;;;;;;;5.10;1.50;;;32.30;92.40;;;;;;5087125;28;20170;-65
2022/07/26 10:42:13;;;;;;;1.75;1.02;;;32.20;92.20;;;;;;5039614;28;20183;-64
2022/07/26 10:44:43;;;;;;;4.18;1.33;;;32.20;92.00;;;;;;5067374;28;20183;-66
2022/07/26 10:47:14;;;;;;;5.10;1.27;;;32.10;92.10;;;;;;5067235;28;20252;-65
2022/07/26 10:49:59;;;;;;;2.35;1.17;;;32.30;92.60;;;;;;5048662;28;20282;-65
2022/07/26 10:52:29;;;;;;;8.73;1.30;;;32.60;92.20;;;;;;5071284;28;20966;-66
2022/07/26 10:55:05;;;;;;;4.38;1.10;;;32.50;91.60;;;;;;5068293;28;20213;-65
2022/07/26 10:57:42;;;;;;;9.52;1.30;;;32.50;91.60;;;;;;5069219;28;20190;-64
2022/07/26 11:00:18;;;;;;;7.50;1.30;;;32.60;91.70;;;;;;5088705;28;20300;-65
2022/07/26 11:02:53;;;;;;;3.72;1.05;;;32.70;91.70;;;;;;5072191;28;20193;-67
2022/07/26 11:05:21;;;;;;;4.80;1.38;;;32.70;91.00;;;;;;5067024;28;20178;-65
2022/07/26 11:08:03;;;;;;;2.97;1.20;;;32.60;91.10;;;;;;5083404;28;20731;-65
2022/07/26 11:10:40;;;;;;;6.50;1.35;;;32.70;91.20;;;;;;5090202;28;20194;-64
2022/07/26 11:13:13;;;;;;;4.80;1.05;;;32.60;91.00;;;;;;5070164;28;20224;-66
2022/07/26 11:15:48;;;;;;;5.40;1.20;;;32.40;91.00;;;;;;5056670;28;20582;-65
2022/07/26 11:18:26;;;;;;;9.30;1.13;;;32.60;90.50;;;;;;5072286;28;20669;-65
2022/07/26 11:20:56;;;;;;;4.45;1.30;;;32.70;90.00;;;;;;5091685;28;20178;-67
2022/07/26 11:23:29;;;;;;;4.25;1.27;;;32.70;90.20;;;;;;5073294;28;20194;-63
2022/07/26 11:26:04;;;;;;;6.13;1.50;;;32.70;89.20;;;;;;5083477;28;20213;-66
2022/07/26 11:29:00;;;;;;;4.97;1.20;;;32.70;88.50;;;;;;5061995;28;20251;-65
2022/07/26 11:31:41;;;;;;;7.80;1.40;;;32.50;89.40;;;;;;5083379;28;20226;-67
2022/07/26 11:34:18;;;;;;;4.88;1.40;;;32.60;88.60;;;;;;5090951;28;20196;-64
2022/07/26 11:36:47;;;;;;;3.08;1.30;;;32.50;87.20;;;;;;5091364;28;20182;-65
2022/07/26 11:39:20;;;;;;;2.10;1.10;;;32.40;86.80;;;;;;5068232;28;20182;-66
2022/07/26 11:41:47;;;;;;;1.95;1.30;;;32.60;88.40;;;;;;5077274;28;20201;-66
2022/07/26 11:44:19;;;;;;;7.72;1.27;;;32.60;85.80;;;;;;5089785;28;20196;-66
2022/07/26 11:46:47;;;;;;;6.57;1.52;;;32.40;86.90;;;;;;5072708;28;20189;-65
2022/07/26 11:49:26;;;;;;;3.65;1.45;;;32.40;86.20;;;;;;5090849;28;20281;-66
2022/07/26 11:51:55;;;;;;;3.45;1.20;;;32.50;87.00;;;;;;5091629;28;20189;-64
2022/07/26 11:54:26;;;;;;;4.72;1.20;;;32.40;87.10;;;;;;5072357;28;20817;-64
2022/07/26 11:57:00;;;;;;;6.47;1.35;;;32.50;88.80;;;;;;5070497;28;20320;-65
2022/07/26 11:59:32;;;;;;;2.78;1.40;;;32.40;88.50;;;;;;5071248;28;20175;-65
2022/07/26 12:02:02;;;;;;;4.55;1.30;;;32.40;89.50;;;;;;5068665;28;20666;-64
2022/07/26 12:04:33;;;;;;;1.90;1.48;;;32.50;90.40;;;;;;5072432;28;20276;-65
2022/07/26 12:07:04;;;;;;;1.85;1.20;;;32.40;90.00;;;;;;5078016;28;20229;-65
2022/07/26 12:09:40;;;;;;;4.78;1.60;;;32.30;90.60;;;;;;5087600;28;20194;-64
2022/07/26 12:12:18;;;;;;;4.97;1.20;;;32.40;89.70;;;;;;5070216;28;20185;-64
2022/07/26 12:15:05;;;;;;;2.65;1.20;;;32.40;89.90;;;;;;5087857;28;20206;-65
2022/07/26 12:17:33;;;;;;;4.13;1.25;;;32.50;89.40;;;;;;5081115;28;20245;-65
2022/07/26 12:20:17;;;;;;;3.65;1.20;;;32.60;88.60;;;;;;5071444;28;20186;-65
2022/07/26 12:23:04;;;;;;;3.90;1.20;;;32.40;88.50;;;;;;5074751;28;20186;-64
2022/07/26 12:25:31;;;;;;;5.13;1.60;;;32.40;87.70;;;;;;5071846;28;20392;-64
2022/07/26 12:27:58;;;;;;;5.20;1.30;;;32.30;87.70;;;;;;5089726;28;20236;-64
2022/07/26 12:30:24;;;;;;;9.05;1.50;;;32.20;86.60;;;;;;5090512;28;20192;-64
2022/07/26 12:32:53;;;;;;;4.68;1.23;;;32.20;86.70;;;;;;5063994;28;20232;-65
2022/07/26 12:35:36;;;;;;;5.63;1.48;;;32.40;86.80;;;;;;5087134;28;20649;-64
2022/07/26 12:38:03;;;;;;;4.45;1.20;;;32.40;84.90;;;;;;5084120;28;20229;-64
2022/07/26 12:40:40;;;;;;;4.88;1.48;;;32.30;84.50;;;;;;5047987;28;20195;-65
2022/07/26 12:43:07;;;;;;;5.10;1.08;;;32.20;85.80;;;;;;5087075;28;20586;-66
2022/07/26 12:45:35;;;;;;;3.72;1.38;;;32.40;85.70;;;;;;5063500;28;20666;-64
2022/07/26 12:48:08;;;;;;;4.55;1.20;;;32.40;83.30;;;;;;5089216;28;20852;-64
2022/07/26 12:50:35;;;;;;;6.22;1.25;;;32.30;82.70;;;;;;5090089;28;20201;-66
2022/07/26 12:53:06;;;;;;;4.53;1.33;;;32.40;81.40;;;;;;5083853;28;20489;-64
2022/07/26 12:55:33;;;;;;;4.63;1.52;;;32.30;82.80;;;;;;5070109;28;20214;-64
2022/07/26 12:57:59;;;;;;;3.70;1.20;;;32.20;82.10;;;;;;5067783;28;20202;-65
2022/07/26 13:00:28;;;;;;;3.35;1.17;;;32.20;81.90;;;;;;5086051;28;20206;-65